createdAt,value
2018-04-19T00:00:00.309Z,12.42
2018-04-19T00:01:00.283Z,12.31
2018-04-19T00:02:00.275Z,12.30
2018-04-19T00:03:00.257Z,12.20
2018-04-19T00:04:00.250Z,12.21
2018-04-19T00:05:00.231Z,12.19
2018-04-19T00:06:00.241Z,12.19
2018-04-19T00:07:00.212Z,12.12
2018-04-19T00:08:00.188Z,12.20
2018-04-19T00:09:00.178Z,12.11
2018-04-19T00:10:00.156Z,12.06
2018-04-19T00:11:00.149Z,12.04
2018-04-19T00:12:00.132Z,12.05
2018-04-19T00:13:00.118Z,11.94
2018-04-19T00:14:00.105Z,12.01
2018-04-19T00:15:00.095Z,11.89
2018-04-19T00:16:00.077Z,11.97
2018-04-19T00:17:00.064Z,11.87
2018-04-19T00:18:00.052Z,11.99
2018-04-19T00:19:00.034Z,11.90
2018-04-19T00:20:00.030Z,11.93
2018-04-19T00:21:00.022Z,11.96
2018-04-19T00:22:00.007Z,12.01
2018-04-19T00:22:59.979Z,11.96
2018-04-19T00:23:59.960Z,11.97
2018-04-19T00:24:59.960Z,11.87
2018-04-19T00:26:00.573Z,11.82
2018-04-19T00:26:59.916Z,11.83
2018-04-19T00:27:59.915Z,11.86
2018-04-19T00:28:59.899Z,11.89
2018-04-19T00:29:59.882Z,11.96
2018-04-19T00:30:59.867Z,11.93
2018-04-19T00:31:59.844Z,11.85
2018-04-19T00:32:59.833Z,11.72
2018-04-19T00:33:59.819Z,11.72
2018-04-19T00:34:59.816Z,11.56
2018-04-19T00:35:59.790Z,11.57
2018-04-19T00:36:59.781Z,11.50
2018-04-19T00:37:59.787Z,11.49
2018-04-19T00:38:59.749Z,11.49
2018-04-19T00:39:59.774Z,11.64
2018-04-19T00:40:59.727Z,11.57
2018-04-19T00:41:59.705Z,11.71
2018-04-19T00:42:59.693Z,11.70
2018-04-19T00:43:59.675Z,11.67
2018-04-19T00:44:59.660Z,11.56
2018-04-19T00:45:59.644Z,11.54
2018-04-19T00:46:59.653Z,11.61
2018-04-19T00:47:59.620Z,11.56
2018-04-19T00:48:59.605Z,11.59
2018-04-19T00:49:59.602Z,11.49
2018-04-19T00:50:59.612Z,11.50
2018-04-19T00:51:59.560Z,11.47
2018-04-19T00:52:59.544Z,11.43
2018-04-19T00:53:59.538Z,11.50
2018-04-19T00:54:59.531Z,11.59
2018-04-19T00:55:59.541Z,11.46
2018-04-19T00:56:59.509Z,11.56
2018-04-19T00:57:59.482Z,11.49
2018-04-19T00:58:59.461Z,11.53
2018-04-19T00:59:59.445Z,11.52
2018-04-19T01:00:59.450Z,11.46
2018-04-19T01:01:59.417Z,11.47
2018-04-19T01:02:59.413Z,11.46
2018-04-19T01:03:59.378Z,11.47
2018-04-19T01:04:59.380Z,11.47
2018-04-19T01:05:59.351Z,11.39
2018-04-19T01:06:59.380Z,11.36
2018-04-19T01:07:59.332Z,11.27
2018-04-19T01:08:59.338Z,11.25
2018-04-19T01:09:59.297Z,11.25
2018-04-19T01:10:59.294Z,11.25
2018-04-19T01:11:59.272Z,11.24
2018-04-19T01:12:59.250Z,11.13
2018-04-19T01:13:59.236Z,11.13
2018-04-19T01:14:59.220Z,11.13
2018-04-19T01:15:59.237Z,11.11
2018-04-19T01:16:59.193Z,11.24
2018-04-19T01:17:59.178Z,11.21
2018-04-19T01:18:59.164Z,11.14
2018-04-19T01:19:59.152Z,11.11
2018-04-19T01:20:59.128Z,11.20
2018-04-19T01:21:59.120Z,11.16
2018-04-19T01:22:59.107Z,11.25
2018-04-19T01:23:59.089Z,11.16
2018-04-19T01:24:59.075Z,11.24
2018-04-19T01:25:59.061Z,11.17
2018-04-19T01:26:59.049Z,11.13
2018-04-19T01:27:59.041Z,11.13
2018-04-19T01:28:59.040Z,11.19
2018-04-19T01:29:58.992Z,11.17
2018-04-19T01:30:59.000Z,11.13
2018-04-19T01:31:58.973Z,11.24
2018-04-19T01:32:58.953Z,11.20
2018-04-19T01:33:58.944Z,11.10
2018-04-19T01:34:58.938Z,11.21
2018-04-19T01:35:58.922Z,11.17
2018-04-19T01:36:58.899Z,11.14
2018-04-19T01:37:58.893Z,11.09
2018-04-19T01:38:58.894Z,11.21
2018-04-19T01:39:58.863Z,11.13
2018-04-19T01:40:58.851Z,11.14
2018-04-19T01:41:58.822Z,11.11
2018-04-19T01:42:58.810Z,11.03
2018-04-19T01:43:58.784Z,11.07
2018-04-19T01:44:58.784Z,10.92
2018-04-19T01:45:58.755Z,10.88
2018-04-19T01:46:58.752Z,10.88
2018-04-19T01:47:58.727Z,10.81
2018-04-19T01:48:58.701Z,10.92
2018-04-19T01:49:58.698Z,11.03
2018-04-19T01:50:58.676Z,10.98
2018-04-19T01:51:58.689Z,10.92
2018-04-19T01:52:58.656Z,10.84
2018-04-19T01:53:58.641Z,10.81
2018-04-19T01:54:58.618Z,10.71
2018-04-19T01:55:58.603Z,10.71
2018-04-19T01:56:58.593Z,10.70
2018-04-19T01:57:58.577Z,10.66
2018-04-19T01:58:58.558Z,10.62
2018-04-19T01:59:58.551Z,10.68
2018-04-19T02:00:58.520Z,10.71
2018-04-19T02:01:58.507Z,10.62
2018-04-19T02:02:58.500Z,10.63
2018-04-19T02:03:58.481Z,10.58
2018-04-19T02:04:58.529Z,10.66
2018-04-19T02:05:58.491Z,10.60
2018-04-19T02:06:58.427Z,10.66
2018-04-19T02:07:58.430Z,10.65
2018-04-19T02:08:58.406Z,10.71
2018-04-19T02:09:58.387Z,10.66
2018-04-19T02:10:58.367Z,10.58
2018-04-19T02:11:58.359Z,10.62
2018-04-19T02:12:59.143Z,10.56
2018-04-19T02:13:58.322Z,10.55
2018-04-19T02:14:58.309Z,10.53
2018-04-19T02:15:58.303Z,10.53
2018-04-19T02:16:58.274Z,10.53
2018-04-19T02:17:58.264Z,10.53
2018-04-19T02:18:58.247Z,10.44
2018-04-19T02:19:58.245Z,10.44
2018-04-19T02:20:58.223Z,10.40
2018-04-19T02:21:58.216Z,10.28
2018-04-19T02:22:58.184Z,10.33
2018-04-19T02:23:58.167Z,10.40
2018-04-19T02:24:58.164Z,10.47
2018-04-19T02:25:58.138Z,10.43
2018-04-19T02:26:58.127Z,10.46
2018-04-19T02:27:58.097Z,10.47
2018-04-19T02:28:58.090Z,10.51
2018-04-19T02:29:58.084Z,10.46
2018-04-19T02:30:58.066Z,10.44
2018-04-19T02:31:58.042Z,10.36
2018-04-19T02:32:58.027Z,10.37
2018-04-19T02:33:58.017Z,10.30
2018-04-19T02:34:58.004Z,10.39
2018-04-19T02:35:57.983Z,10.34
2018-04-19T02:36:57.967Z,10.44
2018-04-19T02:37:57.952Z,10.36
2018-04-19T02:38:57.941Z,10.46
2018-04-19T02:39:57.918Z,10.42
2018-04-19T02:40:57.907Z,10.44
2018-04-19T02:41:57.893Z,10.37
2018-04-19T02:42:57.871Z,10.40
2018-04-19T02:43:57.855Z,10.51
2018-04-19T02:44:57.842Z,10.32
2018-04-19T02:45:57.829Z,10.36
2018-04-19T02:46:57.807Z,10.36
2018-04-19T02:47:57.794Z,10.30
2018-04-19T02:48:57.785Z,10.26
2018-04-19T02:49:57.757Z,10.24
2018-04-19T02:50:57.752Z,10.25
2018-04-19T02:51:57.732Z,10.34
2018-04-19T02:52:57.719Z,10.18
2018-04-19T02:53:57.697Z,10.19
2018-04-19T02:54:57.682Z,10.19
2018-04-19T02:55:57.675Z,10.18
2018-04-19T02:56:57.664Z,10.18
2018-04-19T02:57:57.636Z,10.07
2018-04-19T02:58:57.617Z,10.12
2018-04-19T02:59:57.605Z,10.19
2018-04-19T03:00:57.588Z,10.15
2018-04-19T03:01:57.574Z,10.09
2018-04-19T03:02:57.561Z,10.07
2018-04-19T03:03:57.539Z,10.14
2018-04-19T03:04:57.526Z,10.14
2018-04-19T03:05:57.526Z,10.07
2018-04-19T03:06:57.490Z,10.07
2018-04-19T03:07:57.485Z,10.01
2018-04-19T03:08:57.459Z,10.10
2018-04-19T03:09:57.455Z,10.12
2018-04-19T03:10:57.424Z,10.01
2018-04-19T03:11:57.414Z,9.99
2018-04-19T03:12:57.398Z,9.91
2018-04-19T03:13:57.381Z,9.78
2018-04-19T03:14:57.368Z,9.78
2018-04-19T03:15:57.344Z,9.71
2018-04-19T03:16:57.336Z,9.83
2018-04-19T03:17:57.330Z,9.79
2018-04-19T03:18:57.298Z,9.82
2018-04-19T03:19:57.289Z,9.85
2018-04-19T03:20:57.282Z,9.85
2018-04-19T03:21:57.253Z,9.89
2018-04-19T03:22:57.247Z,9.78
2018-04-19T03:23:57.240Z,9.82
2018-04-19T03:24:57.202Z,9.73
2018-04-19T03:25:57.189Z,9.76
2018-04-19T03:26:57.180Z,9.78
2018-04-19T03:27:57.167Z,9.73
2018-04-19T03:28:57.144Z,9.66
2018-04-19T03:29:57.126Z,9.58
2018-04-19T03:30:57.113Z,9.63
2018-04-19T03:31:57.091Z,9.50
2018-04-19T03:32:57.081Z,9.48
2018-04-19T03:33:57.059Z,9.49
2018-04-19T03:34:57.042Z,9.49
2018-04-19T03:35:57.027Z,9.49
2018-04-19T03:36:57.011Z,9.57
2018-04-19T03:37:57.008Z,9.60
2018-04-19T03:38:56.988Z,9.70
2018-04-19T03:39:56.962Z,9.68
2018-04-19T03:40:56.946Z,9.61
2018-04-19T03:41:56.930Z,9.58
2018-04-19T03:42:56.919Z,9.61
2018-04-19T03:43:56.891Z,9.50
2018-04-19T03:44:56.882Z,9.49
2018-04-19T03:45:56.869Z,9.48
2018-04-19T03:46:56.843Z,9.42
2018-04-19T03:47:56.831Z,9.46
2018-04-19T03:48:56.811Z,9.31
2018-04-19T03:49:56.800Z,9.39
2018-04-19T03:50:56.787Z,9.38
2018-04-19T03:51:56.768Z,9.28
2018-04-19T03:52:56.750Z,9.21
2018-04-19T03:53:56.727Z,9.23
2018-04-19T03:54:56.716Z,9.25
2018-04-19T03:55:56.697Z,9.21
2018-04-19T03:56:56.700Z,9.16
2018-04-19T03:57:56.675Z,9.21
2018-04-19T03:58:56.646Z,9.23
2018-04-19T03:59:56.637Z,9.27
2018-04-19T04:00:56.617Z,9.24
2018-04-19T04:01:56.602Z,9.20
2018-04-19T04:02:56.578Z,9.25
2018-04-19T04:03:56.564Z,9.45
2018-04-19T04:04:56.548Z,9.60
2018-04-19T04:05:56.538Z,9.73
2018-04-19T04:06:56.516Z,10.00
2018-04-19T04:07:56.503Z,10.34
2018-04-19T04:08:56.506Z,10.51
2018-04-19T04:09:56.468Z,10.44
2018-04-19T04:10:56.459Z,10.52
2018-04-19T04:11:56.436Z,10.47
2018-04-19T04:12:56.410Z,10.40
2018-04-19T04:13:56.398Z,10.60
2018-04-19T04:14:56.391Z,10.56
2018-04-19T04:15:56.373Z,10.56
2018-04-19T04:16:56.353Z,10.55
2018-04-19T04:17:56.346Z,10.47
2018-04-19T04:18:56.321Z,10.56
2018-04-19T04:19:56.306Z,10.55
2018-04-19T04:20:56.286Z,10.58
2018-04-19T04:21:56.280Z,10.63
2018-04-19T04:22:56.267Z,10.60
2018-04-19T04:23:56.261Z,10.66
2018-04-19T04:24:56.223Z,10.60
2018-04-19T04:25:56.209Z,10.81
2018-04-19T04:26:56.191Z,10.80
2018-04-19T04:27:56.178Z,11.06
2018-04-19T04:28:56.173Z,11.11
2018-04-19T04:29:56.153Z,11.43
2018-04-19T04:30:56.123Z,11.70
2018-04-19T04:31:56.123Z,11.86
2018-04-19T04:32:56.098Z,11.83
2018-04-19T04:33:56.074Z,12.02
2018-04-19T04:34:56.085Z,12.01
2018-04-19T04:35:56.040Z,12.13
2018-04-19T04:36:56.024Z,12.30
2018-04-19T04:37:56.015Z,12.26
2018-04-19T04:38:55.990Z,12.44
2018-04-19T04:39:55.988Z,12.54
2018-04-19T04:40:55.974Z,12.57
2018-04-19T04:41:55.973Z,12.92
2018-04-19T04:42:55.940Z,12.96
2018-04-19T04:43:55.913Z,13.12
2018-04-19T04:44:55.904Z,13.09
2018-04-19T04:45:55.890Z,13.11
2018-04-19T04:46:55.868Z,13.20
2018-04-19T04:47:55.859Z,13.09
2018-04-19T04:48:55.852Z,13.20
2018-04-19T04:49:55.824Z,13.14
2018-04-19T04:50:55.817Z,13.15
2018-04-19T04:51:55.803Z,13.30
2018-04-19T04:52:55.774Z,13.32
2018-04-19T04:53:55.799Z,13.27
2018-04-19T04:54:55.761Z,13.33
2018-04-19T04:55:55.726Z,13.46
2018-04-19T04:56:55.720Z,13.47
2018-04-19T04:57:55.703Z,13.58
2018-04-19T04:58:55.694Z,13.65
2018-04-19T04:59:55.664Z,13.74
2018-04-19T05:00:55.661Z,13.79
2018-04-19T05:01:55.646Z,13.79
2018-04-19T05:02:55.633Z,13.67
2018-04-19T05:03:55.614Z,13.69
2018-04-19T05:04:55.614Z,13.77
2018-04-19T05:05:55.583Z,13.81
2018-04-19T05:06:55.567Z,13.89
2018-04-19T05:07:55.558Z,13.89
2018-04-19T05:08:55.535Z,13.92
2018-04-19T05:09:55.536Z,13.81
2018-04-19T05:10:55.503Z,13.83
2018-04-19T05:11:55.516Z,13.77
2018-04-19T05:12:55.498Z,13.74
2018-04-19T05:13:55.465Z,13.79
2018-04-19T05:14:55.449Z,13.80
2018-04-19T05:15:55.441Z,13.91
2018-04-19T05:16:55.424Z,13.91
2018-04-19T05:17:55.400Z,13.83
2018-04-19T05:18:55.394Z,13.80
2018-04-19T05:19:55.380Z,13.79
2018-04-19T05:20:55.369Z,13.80
2018-04-19T05:21:55.357Z,13.74
2018-04-19T05:22:55.336Z,13.63
2018-04-19T05:23:55.313Z,13.71
2018-04-19T05:24:55.295Z,13.55
2018-04-19T05:25:55.285Z,13.65
2018-04-19T05:26:55.275Z,13.52
2018-04-19T05:27:55.259Z,13.49
2018-04-19T05:28:55.247Z,13.54
2018-04-19T05:29:55.253Z,13.55
2018-04-19T05:30:55.218Z,13.52
2018-04-19T05:31:55.205Z,13.61
2018-04-19T05:32:55.191Z,13.70
2018-04-19T05:33:55.162Z,13.70
2018-04-19T05:34:55.165Z,13.56
2018-04-19T05:35:55.156Z,13.51
2018-04-19T05:36:55.241Z,13.51
2018-04-19T05:37:55.117Z,13.46
2018-04-19T05:38:55.113Z,13.41
2018-04-19T05:39:55.102Z,13.36
2018-04-19T05:40:55.072Z,13.40
2018-04-19T05:41:55.054Z,13.30
2018-04-19T05:42:55.044Z,13.40
2018-04-19T05:43:55.034Z,13.37
2018-04-19T05:44:55.148Z,13.41
2018-04-19T05:45:55.012Z,13.41
2018-04-19T05:46:55.067Z,13.40
2018-04-19T05:47:54.978Z,13.36
2018-04-19T05:48:54.964Z,13.27
2018-04-19T05:49:54.967Z,13.32
2018-04-19T05:50:54.932Z,13.32
2018-04-19T05:51:54.928Z,13.38
2018-04-19T05:52:54.915Z,13.49
2018-04-19T05:53:54.896Z,13.69
2018-04-19T05:54:54.874Z,13.94
2018-04-19T05:55:54.861Z,14.01
2018-04-19T05:56:54.844Z,13.92
2018-04-19T05:57:54.832Z,13.95
2018-04-19T05:58:54.814Z,14.01
2018-04-19T05:59:54.803Z,13.95
2018-04-19T06:00:54.831Z,13.96
2018-04-19T06:01:54.775Z,13.91
2018-04-19T06:02:54.765Z,14.10
2018-04-19T06:03:54.768Z,13.96
2018-04-19T06:04:54.733Z,14.13
2018-04-19T06:05:54.717Z,14.13
2018-04-19T06:06:54.704Z,14.20
2018-04-19T06:07:54.696Z,14.32
2018-04-19T06:08:54.675Z,14.38
2018-04-19T06:09:54.665Z,14.49
2018-04-19T06:10:54.662Z,14.53
2018-04-19T06:11:54.640Z,14.67
2018-04-19T06:12:54.620Z,14.71
2018-04-19T06:13:54.620Z,14.65
2018-04-19T06:14:54.598Z,14.64
2018-04-19T06:15:54.588Z,14.72
2018-04-19T06:16:54.575Z,14.78
2018-04-19T06:17:54.555Z,14.83
2018-04-19T06:18:54.539Z,14.84
2018-04-19T06:19:54.520Z,14.95
2018-04-19T06:20:55.408Z,14.90
2018-04-19T06:21:54.555Z,14.88
2018-04-19T06:22:54.490Z,14.93
2018-04-19T06:23:54.479Z,15.03
2018-04-19T06:24:54.483Z,15.15
2018-04-19T06:25:54.444Z,15.06
2018-04-19T06:26:54.452Z,15.11
2018-04-19T06:27:54.422Z,15.15
2018-04-19T06:28:54.412Z,15.08
2018-04-19T06:29:54.409Z,15.09
2018-04-19T06:30:54.395Z,15.13
2018-04-19T06:31:54.369Z,15.20
2018-04-19T06:32:54.356Z,15.23
2018-04-19T06:33:54.353Z,15.19
2018-04-19T06:34:54.324Z,15.27
2018-04-19T06:35:54.320Z,15.27
2018-04-19T06:36:54.304Z,15.42
2018-04-19T06:37:54.288Z,15.51
2018-04-19T06:38:54.282Z,15.45
2018-04-19T06:39:54.263Z,15.63
2018-04-19T06:40:54.256Z,15.68
2018-04-19T06:41:54.247Z,15.61
2018-04-19T06:42:54.225Z,15.66
2018-04-19T06:43:54.212Z,15.60
2018-04-19T06:44:54.199Z,15.59
2018-04-19T06:45:54.183Z,15.79
2018-04-19T06:46:54.173Z,15.81
2018-04-19T06:47:54.164Z,15.88
2018-04-19T06:48:54.142Z,16.03
2018-04-19T06:49:54.142Z,15.88
2018-04-19T06:50:54.119Z,15.99
2018-04-19T06:51:54.120Z,15.99
2018-04-19T06:52:54.093Z,15.94
2018-04-19T06:53:54.084Z,16.00
2018-04-19T06:54:54.083Z,15.99
2018-04-19T06:55:54.066Z,15.96
2018-04-19T06:56:54.056Z,15.93
2018-04-19T06:57:54.036Z,15.86
2018-04-19T06:58:54.019Z,15.92
2018-04-19T06:59:54.023Z,16.06
2018-04-19T07:00:54.001Z,16.01
2018-04-19T07:01:53.982Z,16.15
2018-04-19T07:02:53.982Z,16.20
2018-04-19T07:03:53.967Z,16.30
2018-04-19T07:04:53.947Z,16.25
2018-04-19T07:05:53.941Z,16.34
2018-04-19T07:06:53.920Z,16.44
2018-04-19T07:07:53.913Z,16.59
2018-04-19T07:08:53.905Z,16.81
2018-04-19T07:09:53.891Z,16.85
2018-04-19T07:10:53.880Z,16.85
2018-04-19T07:11:53.868Z,16.96
2018-04-19T07:12:53.855Z,16.95
2018-04-19T07:13:53.832Z,17.03
2018-04-19T07:14:53.822Z,17.06
2018-04-19T07:15:53.819Z,17.10
2018-04-19T07:16:53.810Z,17.07
2018-04-19T07:17:53.782Z,17.10
2018-04-19T07:18:53.790Z,17.30
2018-04-19T07:19:53.766Z,17.47
2018-04-19T07:20:53.758Z,17.50
2018-04-19T07:21:53.740Z,17.50
2018-04-19T07:22:53.730Z,17.46
2018-04-19T07:23:53.721Z,17.50
2018-04-19T07:24:53.705Z,17.55
2018-04-19T07:25:53.749Z,17.57
2018-04-19T07:26:53.682Z,17.62
2018-04-19T07:27:53.685Z,17.63
2018-04-19T07:28:53.663Z,17.76
2018-04-19T07:29:53.657Z,17.69
2018-04-19T07:30:53.634Z,17.81
2018-04-19T07:31:53.628Z,17.89
2018-04-19T07:32:53.605Z,17.92
2018-04-19T07:33:53.605Z,18.00
2018-04-19T07:34:53.593Z,18.04
2018-04-19T07:35:53.578Z,18.06
2018-04-19T07:36:53.562Z,18.12
2018-04-19T07:37:53.555Z,18.22
2018-04-19T07:38:53.552Z,18.21
2018-04-19T07:39:53.539Z,18.25
2018-04-19T07:40:53.525Z,18.21
2018-04-19T07:41:53.507Z,18.21
2018-04-19T07:42:53.501Z,18.25
2018-04-19T07:43:53.491Z,18.18
2018-04-19T07:44:53.474Z,18.18
2018-04-19T07:45:53.472Z,18.31
2018-04-19T07:46:53.456Z,18.50
2018-04-19T07:47:53.446Z,18.57
2018-04-19T07:48:53.430Z,18.58
2018-04-19T07:49:53.426Z,18.68
2018-04-19T07:50:53.408Z,18.72
2018-04-19T07:51:53.403Z,18.68
2018-04-19T07:52:53.387Z,18.76
2018-04-19T07:53:53.377Z,18.72
2018-04-19T07:54:53.365Z,18.70
2018-04-19T07:55:53.356Z,18.68
2018-04-19T07:56:53.347Z,18.83
2018-04-19T07:57:53.353Z,18.79
2018-04-19T07:58:53.323Z,18.86
2018-04-19T07:59:53.313Z,18.91
2018-04-19T08:00:53.304Z,18.99
2018-04-19T08:01:53.288Z,18.94
2018-04-19T08:02:53.292Z,19.06
2018-04-19T08:03:53.276Z,19.20
2018-04-19T08:04:53.263Z,19.25
2018-04-19T08:05:53.253Z,19.39
2018-04-19T08:06:53.244Z,19.38
2018-04-19T08:07:53.231Z,19.48
2018-04-19T08:08:53.215Z,19.36
2018-04-19T08:09:53.206Z,19.40
2018-04-19T08:10:53.194Z,19.54
2018-04-19T08:11:53.203Z,19.46
2018-04-19T08:12:53.184Z,19.55
2018-04-19T08:13:53.168Z,19.60
2018-04-19T08:14:53.178Z,19.61
2018-04-19T08:15:53.150Z,19.63
2018-04-19T08:16:53.139Z,19.61
2018-04-19T08:17:53.123Z,19.69
2018-04-19T08:18:53.131Z,19.61
2018-04-19T08:19:53.107Z,19.80
2018-04-19T08:20:53.093Z,19.87
2018-04-19T08:21:53.086Z,19.91
2018-04-19T08:22:53.081Z,19.93
2018-04-19T08:23:53.063Z,20.06
2018-04-19T08:24:53.063Z,20.16
2018-04-19T08:25:53.050Z,20.12
2018-04-19T08:26:53.050Z,20.30
2018-04-19T08:27:53.027Z,20.35
2018-04-19T08:28:53.018Z,20.50
2018-04-19T08:29:53.011Z,20.58
2018-04-19T08:30:53.001Z,20.69
2018-04-19T08:31:52.995Z,20.80
2018-04-19T08:32:52.995Z,20.87
2018-04-19T08:33:52.975Z,21.04
2018-04-19T08:34:52.960Z,21.06
2018-04-19T08:35:52.950Z,21.11
2018-04-19T08:36:52.937Z,21.30
2018-04-19T08:37:52.930Z,21.36
2018-04-19T08:38:52.940Z,21.46
2018-04-19T08:39:52.936Z,21.61
2018-04-19T08:40:52.927Z,21.72
2018-04-19T08:41:52.898Z,21.95
2018-04-19T08:42:52.892Z,21.98
2018-04-19T08:43:52.889Z,22.10
2018-04-19T08:44:52.883Z,22.37
2018-04-19T08:45:52.870Z,22.49
2018-04-19T08:46:52.857Z,22.75
2018-04-19T08:47:52.851Z,22.99
2018-04-19T08:48:52.848Z,23.24
2018-04-19T08:49:52.844Z,23.45
2018-04-19T08:50:52.831Z,23.57
2018-04-19T08:51:52.875Z,23.82
2018-04-19T08:52:52.828Z,24.08
2018-04-19T08:53:52.818Z,24.26
2018-04-19T08:54:52.840Z,24.44
2018-04-19T08:55:52.823Z,24.98
2018-04-19T08:56:52.825Z,25.44
2018-04-19T08:57:52.831Z,25.62
2018-04-19T08:58:52.808Z,25.54
2018-04-19T08:59:52.860Z,25.91
2018-04-19T09:00:52.821Z,26.08
2018-04-19T09:01:52.815Z,26.24
2018-04-19T09:02:52.804Z,26.58
2018-04-19T09:03:52.800Z,26.36
2018-04-19T09:04:52.798Z,26.25
2018-04-19T09:05:52.806Z,26.49
2018-04-19T09:06:52.809Z,26.74
2018-04-19T09:07:52.855Z,26.92
2018-04-19T09:08:52.853Z,26.89
2018-04-19T09:09:52.825Z,26.81
2018-04-19T09:10:52.848Z,27.06
2018-04-19T09:11:52.824Z,26.98
2018-04-19T09:12:52.815Z,27.11
2018-04-19T09:13:52.900Z,27.23
2018-04-19T09:14:52.812Z,27.13
2018-04-19T09:15:52.828Z,27.32
2018-04-19T09:16:52.825Z,27.02
2018-04-19T09:17:52.825Z,27.02
2018-04-19T09:18:52.829Z,27.06
2018-04-19T09:19:52.843Z,27.04
2018-04-19T09:20:52.828Z,27.04
2018-04-19T09:21:52.848Z,27.35
2018-04-19T09:22:52.835Z,27.41
2018-04-19T09:23:52.848Z,27.21
2018-04-19T09:24:52.841Z,27.51
2018-04-19T09:25:52.854Z,27.59
2018-04-19T09:26:52.848Z,28.22
2018-04-19T09:27:52.853Z,27.91
2018-04-19T09:28:52.857Z,27.77
2018-04-19T09:29:52.863Z,27.53
2018-04-19T09:30:52.858Z,27.48
2018-04-19T09:31:52.864Z,27.64
2018-04-19T09:32:52.870Z,28.07
2018-04-19T09:33:52.883Z,28.17
2018-04-19T09:34:52.873Z,28.13
2018-04-19T09:35:52.883Z,28.16
2018-04-19T09:36:52.892Z,28.38
2018-04-19T09:37:52.902Z,28.29
2018-04-19T09:38:52.896Z,28.31
2018-04-19T09:39:52.913Z,28.04
2018-04-19T09:40:52.902Z,28.10
2018-04-19T09:41:52.912Z,28.19
2018-04-19T09:42:52.918Z,27.88
2018-04-19T09:43:52.912Z,27.70
2018-04-19T09:44:52.918Z,27.70
2018-04-19T09:45:52.930Z,27.92
2018-04-19T09:46:52.950Z,27.66
2018-04-19T09:47:52.944Z,28.04
2018-04-19T09:48:52.943Z,28.21
2018-04-19T09:49:52.946Z,28.29
2018-04-19T09:50:52.947Z,27.73
2018-04-19T09:51:52.984Z,27.92
2018-04-19T09:52:52.956Z,27.99
2018-04-19T09:53:53.034Z,28.03
2018-04-19T09:54:52.962Z,28.11
2018-04-19T09:55:52.982Z,28.43
2018-04-19T09:56:52.981Z,28.62
2018-04-19T09:57:53.021Z,28.80
2018-04-19T09:58:52.984Z,28.44
2018-04-19T09:59:53.041Z,27.94
2018-04-19T10:00:53.003Z,28.16
2018-04-19T10:01:52.991Z,28.22
2018-04-19T10:02:53.000Z,28.17
2018-04-19T10:03:53.003Z,28.16
2018-04-19T10:04:52.994Z,28.25
2018-04-19T10:05:52.994Z,28.33
2018-04-19T10:06:53.007Z,28.25
2018-04-19T10:07:53.007Z,28.35
2018-04-19T10:08:53.011Z,27.98
2018-04-19T10:09:53.020Z,28.06
2018-04-19T10:10:53.008Z,28.23
2018-04-19T10:11:53.025Z,28.36
2018-04-19T10:12:53.030Z,28.17
2018-04-19T10:13:53.024Z,27.96
2018-04-19T10:14:53.018Z,28.06
2018-04-19T10:15:53.058Z,27.99
2018-04-19T10:16:53.033Z,28.21
2018-04-19T10:17:53.031Z,28.32
2018-04-19T10:18:53.032Z,28.41
2018-04-19T10:19:53.037Z,28.43
2018-04-19T10:20:53.031Z,28.47
2018-04-19T10:21:53.056Z,28.21
2018-04-19T10:22:53.057Z,28.26
2018-04-19T10:23:53.051Z,28.44
2018-04-19T10:24:53.048Z,28.75
2018-04-19T10:25:53.051Z,28.97
2018-04-19T10:26:53.080Z,29.13
2018-04-19T10:27:53.102Z,28.95
2018-04-19T10:28:53.060Z,29.18
2018-04-19T10:29:53.213Z,28.87
2018-04-19T10:30:53.086Z,28.95
2018-04-19T10:31:53.070Z,28.72
2018-04-19T10:32:53.077Z,28.73
2018-04-19T10:33:53.148Z,28.75
2018-04-19T10:34:53.095Z,28.88
2018-04-19T10:35:53.167Z,28.65
2018-04-19T10:36:53.096Z,28.69
2018-04-19T10:37:53.183Z,28.88
2018-04-19T10:38:53.111Z,29.00
2018-04-19T10:39:53.118Z,29.10
2018-04-19T10:40:53.121Z,29.33
2018-04-19T10:41:53.140Z,29.62
2018-04-19T10:42:53.146Z,29.68
2018-04-19T10:43:53.153Z,29.63
2018-04-19T10:44:53.150Z,29.66
2018-04-19T10:45:53.162Z,29.60
2018-04-19T10:46:53.159Z,29.62
2018-04-19T10:47:53.168Z,29.77
2018-04-19T10:48:53.175Z,29.84
2018-04-19T10:49:53.205Z,30.36
2018-04-19T10:50:53.185Z,30.46
2018-04-19T10:51:53.201Z,30.76
2018-04-19T10:52:53.214Z,30.72
2018-04-19T10:53:53.212Z,30.57
2018-04-19T10:54:53.266Z,30.59
2018-04-19T10:55:53.230Z,30.93
2018-04-19T10:56:53.236Z,30.98
2018-04-19T10:57:53.261Z,31.18
2018-04-19T10:58:53.258Z,31.06
2018-04-19T10:59:53.271Z,30.34
2018-04-19T11:00:53.283Z,30.30
2018-04-19T11:01:53.273Z,30.37
2018-04-19T11:02:53.283Z,30.38
2018-04-19T11:03:53.308Z,30.37
2018-04-19T11:04:53.296Z,30.61
2018-04-19T11:05:53.308Z,30.57
2018-04-19T11:06:53.315Z,30.87
2018-04-19T11:07:53.328Z,31.09
2018-04-19T11:08:53.347Z,31.48
2018-04-19T11:09:53.344Z,31.98
2018-04-19T11:10:53.347Z,32.11
2018-04-19T11:11:53.366Z,32.00
2018-04-19T11:12:53.372Z,32.24
2018-04-19T11:13:53.391Z,32.33
2018-04-19T11:14:53.391Z,31.95
2018-04-19T11:15:53.398Z,31.84
2018-04-19T11:16:53.408Z,31.60
2018-04-19T11:17:53.411Z,31.17
2018-04-19T11:18:53.412Z,31.20
2018-04-19T11:19:53.440Z,31.18
2018-04-19T11:20:53.443Z,31.17
2018-04-19T11:21:53.440Z,30.96
2018-04-19T11:22:53.456Z,30.40
2018-04-19T11:23:53.463Z,30.31
2018-04-19T11:24:53.467Z,30.68
2018-04-19T11:25:53.483Z,31.23
2018-04-19T11:26:53.501Z,31.42
2018-04-19T11:27:53.494Z,30.69
2018-04-19T11:28:53.507Z,30.52
2018-04-19T11:29:53.540Z,29.66
2018-04-19T11:30:53.533Z,29.60
2018-04-19T11:31:53.534Z,29.92
2018-04-19T11:32:53.544Z,30.56
2018-04-19T11:33:53.563Z,31.23
2018-04-19T11:34:53.568Z,31.46
2018-04-19T11:35:53.593Z,31.50
2018-04-19T11:36:53.577Z,31.70
2018-04-19T11:37:53.603Z,31.76
2018-04-19T11:38:53.605Z,32.14
2018-04-19T11:39:53.615Z,31.72
2018-04-19T11:40:53.615Z,31.38
2018-04-19T11:41:53.660Z,31.09
2018-04-19T11:42:53.657Z,30.68
2018-04-19T11:43:53.648Z,30.72
2018-04-19T11:44:53.646Z,31.06
2018-04-19T11:45:53.663Z,31.27
2018-04-19T11:46:53.666Z,31.27
2018-04-19T11:47:53.679Z,31.46
2018-04-19T11:48:53.685Z,30.87
2018-04-19T11:49:53.702Z,30.81
2018-04-19T11:50:53.706Z,30.19
2018-04-19T11:51:53.721Z,30.19
2018-04-19T11:52:53.850Z,30.19
2018-04-19T11:54:03.368Z,30.65
2018-04-19T11:55:47.155Z,30.68
2018-04-19T11:56:47.141Z,30.80
2018-04-19T11:57:47.163Z,31.09
2018-04-19T11:58:47.201Z,31.23
2018-04-19T11:59:47.179Z,31.42
2018-04-19T12:00:47.179Z,31.67
2018-04-19T12:01:47.189Z,31.82
2018-04-19T12:02:47.196Z,31.61
2018-04-19T12:03:47.207Z,31.85
2018-04-19T12:04:47.227Z,31.85
2018-04-19T12:05:47.220Z,32.03
2018-04-19T12:06:47.233Z,32.06
2018-04-19T12:07:47.233Z,32.30
2018-04-19T12:08:47.262Z,31.26
2018-04-19T12:09:47.275Z,30.53
2018-04-19T12:10:47.300Z,30.62
2018-04-19T12:11:47.291Z,31.04
2018-04-19T12:12:47.308Z,31.38
2018-04-19T12:13:47.359Z,31.24
2018-04-19T12:14:47.304Z,31.18
2018-04-19T12:15:47.317Z,30.91
2018-04-19T12:16:47.319Z,31.15
2018-04-19T12:17:47.342Z,31.39
2018-04-19T12:18:47.343Z,31.57
2018-04-19T12:19:47.354Z,31.54
2018-04-19T12:20:47.352Z,31.24
2018-04-19T12:21:47.380Z,31.40
2018-04-19T12:22:47.376Z,30.83
2018-04-19T12:23:47.400Z,31.12
2018-04-19T12:24:47.394Z,31.45
2018-04-19T12:25:47.402Z,31.24
2018-04-19T12:26:47.435Z,31.54
2018-04-19T12:27:47.419Z,32.02
2018-04-19T12:28:47.424Z,32.00
2018-04-19T12:29:47.433Z,32.02
2018-04-19T12:30:47.449Z,32.35
2018-04-19T12:31:47.477Z,32.64
2018-04-19T12:32:47.465Z,32.59
2018-04-19T12:33:47.468Z,32.51
2018-04-19T12:34:47.490Z,32.02
2018-04-19T12:35:49.204Z,31.98
2018-04-19T12:36:47.513Z,31.95
2018-04-19T12:37:47.506Z,31.82
2018-04-19T12:38:47.518Z,31.93
2018-04-19T12:39:47.542Z,31.85
2018-04-19T12:40:47.535Z,31.68
2018-04-19T12:41:47.541Z,31.61
2018-04-19T12:42:47.551Z,31.75
2018-04-19T12:43:47.584Z,32.00
2018-04-19T12:44:47.607Z,32.05
2018-04-19T12:45:47.606Z,31.49
2018-04-19T12:46:47.586Z,31.15
2018-04-19T12:47:47.619Z,30.64
2018-04-19T12:48:47.606Z,30.62
2018-04-19T12:49:47.619Z,30.80
2018-04-19T12:50:47.634Z,31.20
2018-04-19T12:51:47.635Z,31.48
2018-04-19T12:52:47.660Z,31.39
2018-04-19T12:53:47.655Z,30.68
2018-04-19T12:54:47.656Z,30.23